createdAt,value
2023-05-11T00:03:03.760Z,100.00
2023-05-11T00:08:05.871Z,100.00
2023-05-11T00:13:07.517Z,100.00
2023-05-11T00:18:09.241Z,100.00
2023-05-11T00:23:10.932Z,100.00
2023-05-11T00:28:12.977Z,100.00
2023-05-11T00:33:14.728Z,100.00
2023-05-11T00:38:16.708Z,100.00
2023-05-11T00:43:18.343Z,100.00
2023-05-11T00:48:19.947Z,100.00
2023-05-11T00:53:21.868Z,100.00
2023-05-11T00:58:23.799Z,100.00
2023-05-11T01:03:26.493Z,100.00
2023-05-11T01:08:42.416Z,100.00
2023-05-11T01:13:51.361Z,100.00
2023-05-11T01:18:58.662Z,100.00
2023-05-11T01:24:17.388Z,100.00
2023-05-11T01:29:41.033Z,100.00
2023-05-11T01:34:45.359Z,100.00
2023-05-11T01:40:01.189Z,100.00
2023-05-11T01:45:06.176Z,100.00
2023-05-11T01:50:09.460Z,100.00
2023-05-11T01:55:17.482Z,100.00
2023-05-11T02:00:19.681Z,100.00
2023-05-11T02:05:24.190Z,100.00
2023-05-11T02:10:27.977Z,100.00
2023-05-11T02:15:31.010Z,100.00
2023-05-11T02:20:33.514Z,100.00
2023-05-11T02:25:36.762Z,100.00
2023-05-11T02:30:46.646Z,100.00
2023-05-11T02:35:51.481Z,100.00
2023-05-11T02:40:57.490Z,100.00
2023-05-11T02:46:03.906Z,100.00
2023-05-11T02:51:08.429Z,100.00
2023-05-11T02:56:16.761Z,100.00
2023-05-11T03:01:19.850Z,100.00
2023-05-11T03:06:21.812Z,100.00
2023-05-11T03:11:24.408Z,100.00
2023-05-11T03:16:26.824Z,100.00
2023-05-11T03:21:29.837Z,100.00
2023-05-11T03:26:33.288Z,100.00
2023-05-11T03:31:35.077Z,100.00
2023-05-11T03:36:39.712Z,100.00
2023-05-11T03:41:44.602Z,100.00
2023-05-11T03:46:50.452Z,100.00
2023-05-11T03:51:53.339Z,100.00
2023-05-11T03:56:56.441Z,96.28
2023-05-11T04:01:58.840Z,90.66
2023-05-11T04:07:00.828Z,90.63
2023-05-11T04:12:02.680Z,90.86
2023-05-11T04:17:04.320Z,90.66
2023-05-11T04:22:05.994Z,89.47
2023-05-11T04:27:07.653Z,88.73
2023-05-11T04:32:09.286Z,84.70
2023-05-11T04:37:10.988Z,88.32
2023-05-11T04:42:13.448Z,84.13
2023-05-11T04:47:16.078Z,83.33
2023-05-11T04:52:17.790Z,88.39
2023-05-11T04:57:23.594Z,88.30
2023-05-11T05:02:25.686Z,82.82
2023-05-11T05:07:27.912Z,79.80
2023-05-11T05:12:30.928Z,79.30
2023-05-11T05:17:32.790Z,77.80
2023-05-11T05:22:34.886Z,74.72
2023-05-11T05:27:37.586Z,74.31
2023-05-11T05:32:42.800Z,72.99
2023-05-11T05:37:44.927Z,72.87
2023-05-11T05:42:46.774Z,71.49
2023-05-11T05:47:52.611Z,70.15
2023-05-11T05:52:55.691Z,72.70
2023-05-11T05:58:00.254Z,69.64
2023-05-11T06:03:02.112Z,69.56
2023-05-11T06:08:10.610Z,68.54
2023-05-11T06:13:13.769Z,64.42
2023-05-11T06:18:17.381Z,61.71
2023-05-11T06:23:19.790Z,61.13
2023-05-11T06:28:24.468Z,63.04
2023-05-11T06:33:29.371Z,62.13
2023-05-11T06:38:31.374Z,58.12
2023-05-11T06:43:33.653Z,59.36
2023-05-11T06:48:37.479Z,59.88
2023-05-11T06:53:39.294Z,57.07
2023-05-11T06:58:41.013Z,57.18
2023-05-11T07:03:42.578Z,54.76
2023-05-11T07:08:44.146Z,54.24
2023-05-11T07:13:45.922Z,53.75
2023-05-11T07:18:47.674Z,54.96
2023-05-11T07:23:49.358Z,52.02
2023-05-11T07:28:51.053Z,52.11
2023-05-11T07:33:53.298Z,50.46
2023-05-11T07:38:54.930Z,50.54
2023-05-11T07:43:56.886Z,50.99
2023-05-11T07:49:11.330Z,50.88
2023-05-11T07:54:18.812Z,49.05
2023-05-11T07:59:21.786Z,50.42
2023-05-11T08:04:23.409Z,48.44
2023-05-11T08:09:25.095Z,49.23
2023-05-11T08:14:26.912Z,48.78
2023-05-11T08:19:28.526Z,47.96
2023-05-11T08:24:30.135Z,46.59
2023-05-11T08:29:31.771Z,47.14
2023-05-11T08:34:33.468Z,46.25
2023-05-11T08:39:46.806Z,47.34
2023-05-11T08:44:49.984Z,45.64
2023-05-11T08:49:55.000Z,45.49
2023-05-11T08:54:56.754Z,44.00
2023-05-11T09:00:00.188Z,44.80
2023-05-11T09:05:04.638Z,43.53
2023-05-11T09:10:07.451Z,42.82
2023-05-11T09:15:09.599Z,42.54
2023-05-11T09:20:11.614Z,43.09
2023-05-11T09:25:17.502Z,44.81
2023-05-11T09:30:22.949Z,42.34
2023-05-11T09:35:33.906Z,40.78
2023-05-11T09:40:50.117Z,39.77
2023-05-11T09:45:55.110Z,38.80
2023-05-11T09:51:05.788Z,37.73
2023-05-11T09:56:07.682Z,36.83
2023-05-11T10:01:09.379Z,38.04
2023-05-11T10:06:11.085Z,38.15
2023-05-11T10:11:12.781Z,37.88
2023-05-11T10:16:16.422Z,37.89
2023-05-11T10:21:18.582Z,36.42
2023-05-11T10:26:20.431Z,37.25
2023-05-11T10:31:24.203Z,35.94
2023-05-11T10:36:26.418Z,34.42
2023-05-11T10:41:53.552Z,34.31
2023-05-11T10:47:32.379Z,33.44
2023-05-11T10:52:44.875Z,34.58
2023-05-11T10:57:54.852Z,33.95
2023-05-11T11:03:12.387Z,33.04
2023-05-11T11:08:14.213Z,34.01
2023-05-11T11:13:24.412Z,36.57
2023-05-11T11:18:31.260Z,34.35
2023-05-11T11:23:51.829Z,34.41
2023-05-11T11:29:02.383Z,34.38
2023-05-11T11:34:29.133Z,35.82
2023-05-11T11:39:50.798Z,35.19
2023-05-11T11:44:52.416Z,35.89
2023-05-11T11:49:55.556Z,32.74
2023-05-11T11:55:01.633Z,34.64
2023-05-11T12:00:06.897Z,34.70
2023-05-11T12:05:19.350Z,34.24
2023-05-11T12:10:22.990Z,35.42
2023-05-11T12:15:25.736Z,39.51
2023-05-11T12:20:27.421Z,35.14
2023-05-11T12:25:29.062Z,37.61
2023-05-11T12:30:34.741Z,38.59
2023-05-11T12:35:37.856Z,38.42
2023-05-11T12:40:40.036Z,39.68
2023-05-11T12:45:43.207Z,39.46
2023-05-11T12:50:46.398Z,39.54
2023-05-11T12:55:59.024Z,38.71
2023-05-11T13:01:00.789Z,38.55
2023-05-11T13:06:09.901Z,39.56
2023-05-11T13:11:23.077Z,40.38
2023-05-11T13:16:32.596Z,40.88
2023-05-11T13:21:34.473Z,40.32
2023-05-11T13:26:36.127Z,40.32
2023-05-11T13:31:45.873Z,39.54
2023-05-11T13:36:47.859Z,36.94
2023-05-11T13:41:49.592Z,38.11
2023-05-11T13:46:51.203Z,37.84
2023-05-11T13:51:53.030Z,37.07
2023-05-11T13:56:54.753Z,37.36
2023-05-11T14:01:56.578Z,37.14
2023-05-11T14:06:59.344Z,36.97
2023-05-11T14:12:01.089Z,36.50
2023-05-11T14:17:02.745Z,34.34
2023-05-11T14:22:04.594Z,34.29
2023-05-11T14:27:06.546Z,34.33
2023-05-11T14:32:08.171Z,34.85
2023-05-11T14:37:09.830Z,34.77
2023-05-11T14:42:11.442Z,35.31
2023-05-11T14:47:13.139Z,34.76
2023-05-11T14:52:14.788Z,35.61
2023-05-11T14:57:17.457Z,35.67
2023-05-11T15:02:19.086Z,34.27
2023-05-11T15:07:21.270Z,35.00
2023-05-11T15:12:23.440Z,35.28
2023-05-11T15:17:26.354Z,35.66
2023-05-11T15:22:27.940Z,34.78
2023-05-11T15:27:30.190Z,34.82
2023-05-11T15:32:32.055Z,34.76
2023-05-11T15:37:33.945Z,35.90
2023-05-11T15:42:35.569Z,35.38
2023-05-11T15:47:37.954Z,34.91
2023-05-11T15:52:43.011Z,34.92
2023-05-11T15:57:44.686Z,35.20
2023-05-11T16:02:48.711Z,34.48
2023-05-11T16:07:50.924Z,34.37
2023-05-11T16:12:52.599Z,35.44
2023-05-11T16:17:54.461Z,33.91
2023-05-11T16:22:56.221Z,34.87
2023-05-11T16:27:57.898Z,34.69
2023-05-11T16:32:59.587Z,35.46
2023-05-11T16:38:01.313Z,34.88
2023-05-11T16:43:02.946Z,35.91
2023-05-11T16:48:04.717Z,36.20
2023-05-11T16:53:06.432Z,35.22
2023-05-11T16:58:08.042Z,35.29
2023-05-11T17:03:09.743Z,34.73
2023-05-11T17:08:12.138Z,34.95
2023-05-11T17:13:13.821Z,35.55
2023-05-11T17:18:15.637Z,36.37
2023-05-11T17:23:17.281Z,35.85
2023-05-11T17:28:18.864Z,35.73
2023-05-11T17:33:20.633Z,35.94
2023-05-11T17:38:22.392Z,36.02
2023-05-11T17:43:24.245Z,37.15
2023-05-11T17:48:26.027Z,37.16
2023-05-11T17:53:27.672Z,37.40
2023-05-11T17:58:29.315Z,37.18
2023-05-11T18:03:31.205Z,38.34
2023-05-11T18:08:33.174Z,38.04
2023-05-11T18:13:35.583Z,39.27
2023-05-11T18:18:37.618Z,38.36
2023-05-11T18:23:39.302Z,38.20
2023-05-11T18:28:40.907Z,38.95
2023-05-11T18:33:42.502Z,39.27
2023-05-11T18:38:44.660Z,39.38
2023-05-11T18:43:48.304Z,39.17
2023-05-11T18:48:50.508Z,40.44
2023-05-11T18:53:52.251Z,40.58
2023-05-11T18:58:53.972Z,40.59
2023-05-11T19:03:56.217Z,40.85
2023-05-11T19:08:57.843Z,41.27
2023-05-11T19:13:59.561Z,41.32
2023-05-11T19:19:02.616Z,42.01
2023-05-11T19:24:04.580Z,42.46
2023-05-11T19:29:07.223Z,42.66
2023-05-11T19:34:08.990Z,43.41
2023-05-11T19:39:10.662Z,44.09
2023-05-11T19:44:12.266Z,45.14
2023-05-11T19:49:15.232Z,45.32
2023-05-11T19:54:20.556Z,45.38
2023-05-11T19:59:22.424Z,46.14
2023-05-11T20:04:24.146Z,46.35
2023-05-11T20:09:26.242Z,47.07
2023-05-11T20:14:27.901Z,48.41
2023-05-11T20:19:29.489Z,48.87
2023-05-11T20:24:31.367Z,49.94
2023-05-11T20:29:33.182Z,50.96
2023-05-11T20:34:35.559Z,51.64
2023-05-11T20:39:37.215Z,53.30
2023-05-11T20:44:38.827Z,51.56
2023-05-11T20:49:40.433Z,52.22
2023-05-11T20:54:42.200Z,52.72
2023-05-11T21:04:48.605Z,53.10
2023-05-11T21:09:50.321Z,54.45
2023-05-11T21:14:51.936Z,55.06
2023-05-11T21:19:53.609Z,54.91
2023-05-11T21:24:55.220Z,55.80
2023-05-11T21:29:56.872Z,55.60
2023-05-11T21:34:58.456Z,56.70
2023-05-11T21:40:00.649Z,56.34
2023-05-11T21:45:03.467Z,57.01
2023-05-11T21:50:07.666Z,57.32
2023-05-11T21:55:09.944Z,57.81
2023-05-11T22:00:18.228Z,58.34
2023-05-11T22:05:20.637Z,57.71
2023-05-11T22:10:23.881Z,58.60
2023-05-11T22:15:25.475Z,59.37
2023-05-11T22:20:27.140Z,60.40
2023-05-11T22:25:28.802Z,61.17
2023-05-11T22:30:30.697Z,60.38
2023-05-11T22:35:32.350Z,60.25
2023-05-11T22:40:33.963Z,61.67
2023-05-11T22:45:36.620Z,61.66
2023-05-11T22:50:46.474Z,62.15
2023-05-11T22:55:48.362Z,61.78
2023-05-11T23:00:54.539Z,61.76
2023-05-11T23:05:56.500Z,64.16
2023-05-11T23:10:58.142Z,63.83
2023-05-11T23:15:59.989Z,61.89
2023-05-11T23:21:01.626Z,62.70
2023-05-11T23:26:03.370Z,62.14
2023-05-11T23:31:05.092Z,63.36
2023-05-11T23:36:07.598Z,64.83
2023-05-11T23:41:09.283Z,64.88
2023-05-11T23:46:11.300Z,66.17
2023-05-11T23:51:13.039Z,65.84
2023-05-11T23:56:14.779Z,67.13
